Observation data for Aspermont on 01/17/2019      Previous  Date  Next       Current Mesonet Observations  Soil Data  Daily Summary Page  Observations in Plain Language
KASR 170600Z 20008KT 10/06 A3005 RMK A01 T00960062  RH  080%=      5-min Rain = 0
KASR 170605Z 20009KT 10/06 A3005 RMK A01 T00960063  RH  081%=      5-min Rain = 0
KASR 170610Z 20009KT 10/06 A3005 RMK A01 T00990063  RH  080%=      5-min Rain = 0
KASR 170615Z 20009KT 10/07 A3005 RMK A01 T01020065  RH  079%=      5-min Rain = 0
KASR 170620Z 20009KT 10/06 A3005 RMK A01 T01030064  RH  078%=      5-min Rain = 0
KASR 170625Z 20008KT 10/06 A3005 RMK A01 T01040061  RH  076%=      5-min Rain = 0
KASR 170630Z 20009KT 10/06 A3005 RMK A01 T01020060  RH  076%=      5-min Rain = 0
KASR 170635Z 19011KT 10/06 A3005 RMK A01 T00970063  RH  080%=      5-min Rain = 0
KASR 170640Z 19011KT 10/06 A3005 RMK A01 T00960063  RH  081%=      5-min Rain = 0
KASR 170645Z 20009KT 10/06 A3005 RMK A01 T00970062  RH  080%=      5-min Rain = 0
KASR 170650Z 20008KT 10/06 A3005 RMK A01 T00960060  RH  080%=      5-min Rain = 0
KASR 170655Z 21008KT 10/06 A3005 RMK A01 T00950059  RH  080%=      5-min Rain = 0
KASR 170700Z 21009KT 10/06 A3005 RMK A01 T00950060  RH  080%=      5-min Rain = 0
KASR 170705Z 21009KT 09/06 A3005 RMK A01 T00920059  RH  081%=      5-min Rain = 0
KASR 170710Z 21009KT 09/06 A3004 RMK A01 T00900057  RH  081%=      5-min Rain = 0
KASR 170715Z 21009KT 09/06 A3004 RMK A01 T00900055  RH  080%=      5-min Rain = 0
KASR 170720Z 21009KT 09/05 A3004 RMK A01 T00910051  RH  077%=      5-min Rain = 0
KASR 170725Z 21009KT 09/05 A3004 RMK A01 T00940048  RH  074%=      5-min Rain = 0
KASR 170730Z 22008KT 10/04 A3004 RMK A01 T00950044  RH  071%=      5-min Rain = 0
KASR 170735Z 23008KT 10/04 A3004 RMK A01 T00990040  RH  068%=      5-min Rain = 0
KASR 170740Z 22008KT 10/04 A3005 RMK A01 T01000039  RH  067%=      5-min Rain = 0
KASR 170745Z 22009KT 10/04 A3005 RMK A01 T00980039  RH  067%=      5-min Rain = 0
KASR 170750Z 22010KT 10/04 A3005 RMK A01 T00980039  RH  067%=      5-min Rain = 0
KASR 170755Z 22010KT 10/04 A3005 RMK A01 T00990038  RH  066%=      5-min Rain = 0
KASR 170800Z 22010KT 10/04 A3005 RMK A01 T00990038  RH  067%=      5-min Rain = 0
KASR 170805Z 22010KT 10/04 A3005 RMK A01 T00960038  RH  068%=      5-min Rain = 0
KASR 170810Z 22010KT 09/04 A3005 RMK A01 T00940038  RH  069%=      5-min Rain = 0
KASR 170815Z 22009KT 10/04 A3005 RMK A01 T00960036  RH  067%=      5-min Rain = 0
KASR 170820Z 22009KT 10/03 A3005 RMK A01 T00950034  RH  067%=      5-min Rain = 0
KASR 170825Z 22009KT 10/03 A3005 RMK A01 T00950032  RH  066%=      5-min Rain = 0
KASR 170830Z 22008KT 09/03 A3005 RMK A01 T00930031  RH  066%=      5-min Rain = 0
KASR 170835Z 22008KT 09/03 A3005 RMK A01 T00890031  RH  068%=      5-min Rain = 0
KASR 170840Z 21009KT 09/03 A3005 RMK A01 T00890030  RH  067%=      5-min Rain = 0
KASR 170845Z 22008KT 09/03 A3005 RMK A01 T00890030  RH  067%=      5-min Rain = 0
KASR 170850Z 22009KT 09/03 A3005 RMK A01 T00870029  RH  068%=      5-min Rain = 0
KASR 170855Z 23009KT 09/03 A3005 RMK A01 T00920027  RH  065%=      5-min Rain = 0
KASR 170900Z 23009KT 09/03 A3005 RMK A01 T00910027  RH  065%=      5-min Rain = 0
KASR 170905Z 23008KT 09/03 A3005 RMK A01 T00880027  RH  066%=      5-min Rain = 0
KASR 170910Z 23008KT 09/03 A3005 RMK A01 T00850026  RH  067%=      5-min Rain = 0
KASR 170915Z 23008KT 09/02 A3005 RMK A01 T00870024  RH  066%=      5-min Rain = 0
KASR 170920Z 24008KT 09/02 A3006 RMK A01 T00860024  RH  066%=      5-min Rain = 0
KASR 170925Z 24008KT 08/02 A3006 RMK A01 T00830023  RH  067%=      5-min Rain = 0
KASR 170930Z 24008KT 09/02 A3006 RMK A01 T00850022  RH  065%=      5-min Rain = 0
KASR 170935Z 24008KT 09/02 A3007 RMK A01 T00860021  RH  065%=      5-min Rain = 0
KASR 170940Z 24010KT 09/02 A3007 RMK A01 T00880021  RH  063%=      5-min Rain = 0
KASR 170945Z 24009KT 09/02 A3007 RMK A01 T00890021  RH  063%=      5-min Rain = 0
KASR 170950Z 25009KT 09/02 A3007 RMK A01 T00890020  RH  063%=      5-min Rain = 0
KASR 170955Z 26010KT 10/02 A3007 RMK A01 T00950019  RH  060%=      5-min Rain = 0
KASR 171000Z 26011KT 10/02 A3007 RMK A01 T00970018  RH  059%=      5-min Rain = 0
KASR 171005Z 26012KT 10/02 A3007 RMK A01 T00980018  RH  058%=      5-min Rain = 0
KASR 171010Z 27010KT 10/02 A3007 RMK A01 T01000017  RH  057%=      5-min Rain = 0
KASR 171015Z 29009KT 10/02 A3008 RMK A01 T01000016  RH  056%=      5-min Rain = 0
KASR 171020Z 29008KT 09/02 A3008 RMK A01 T00930017  RH  060%=      5-min Rain = 0
KASR 171025Z 28009KT 09/02 A3008 RMK A01 T00910017  RH  061%=      5-min Rain = 0
KASR 171030Z 28009KT 09/02 A3008 RMK A01 T00900017  RH  061%=      5-min Rain = 0
KASR 171035Z 29008KT 09/02 A3008 RMK A01 T00870017  RH  062%=      5-min Rain = 0
KASR 171040Z 29008KT 08/02 A3009 RMK A01 T00830016  RH  063%=      5-min Rain = 0
KASR 171045Z 28008KT 08/02 A3009 RMK A01 T00820016  RH  064%=      5-min Rain = 0
KASR 171050Z 28008KT 08/02 A3009 RMK A01 T00790016  RH  065%=      5-min Rain = 0
KASR 171055Z 27008KT 07/02 A3009 RMK A01 T00740016  RH  067%=      5-min Rain = 0
KASR 171100Z 28008KT 07/02 A3009 RMK A01 T00730015  RH  068%=      5-min Rain = 0
KASR 171105Z 28008KT 07/01 A3009 RMK A01 T00730014  RH  067%=      5-min Rain = 0
KASR 171110Z 28007KT 07/01 A3009 RMK A01 T00700013  RH  068%=      5-min Rain = 0
KASR 171115Z 29006KT 07/01 A3009 RMK A01 T00680012  RH  068%=      5-min Rain = 0
KASR 171120Z 29006KT 07/01 A301 RMK A01 T00680011  RH  068%=      5-min Rain = 0
KASR 171125Z 31003KT 07/01 A301 RMK A01 T00650010  RH  069%=      5-min Rain = 0
KASR 171130Z 01006KT 06/01 A301 RMK A01 T00630009  RH  069%=      5-min Rain = 0
KASR 171135Z 01006KT 06/01 A301 RMK A01 T00620009  RH  070%=      5-min Rain = 0
KASR 171140Z 35007KT 06/01 A301 RMK A01 T00590009  RH  071%=      5-min Rain = 0
KASR 171145Z 35007KT 06/01 A301 RMK A01 T00570010  RH  073%=      5-min Rain = 0
KASR 171150Z 36006KT 05/01 A3011 RMK A01 T00540009  RH  074%=      5-min Rain = 0
KASR 171155Z 01006KT 06/01 A3011 RMK A01 T00550011  RH  074%=      5-min Rain = 0
KASR 171200Z 01004KT 05/01 A3012 RMK A01 T00520010  RH  076%=      5-min Rain = 0
KASR 171205Z 03003KT 05/01 A3012 RMK A01 T00490010  RH  077%=      5-min Rain = 0
KASR 171210Z 06002KT 05/01 A3013 RMK A01 T00500010  RH  076%=      5-min Rain = 0
KASR 171215Z 06003KT 05/01 A3014 RMK A01 T00470008  RH  077%=      5-min Rain = 0
KASR 171220Z 05003KT 05/01 A3014 RMK A01 T00460009  RH  078%=      5-min Rain = 0
KASR 171225Z 02003KT 05/01 A3014 RMK A01 T00460009  RH  078%=      5-min Rain = 0
KASR 171230Z 01004KT 05/01 A3014 RMK A01 T00450009  RH  078%=      5-min Rain = 0
KASR 171235Z 02003KT 04/01 A3014 RMK A01 T00400005  RH  079%=      5-min Rain = 0
KASR 171240Z 03002KT 03/00 A3014 RMK A01 T00310001  RH  082%=      5-min Rain = 0
KASR 171245Z 01001KT 03/00 A3014 RMK A01 T00300004  RH  084%=      5-min Rain = 0
KASR 171250Z 34002KT 03/01 A3014 RMK A01 T00310005  RH  084%=      5-min Rain = 0
KASR 171255Z 33003KT 03/01 A3014 RMK A01 T00310006  RH  084%=      5-min Rain = 0
KASR 171300Z 35004KT 03/00 A3014 RMK A01 T00270004  RH  085%=      5-min Rain = 0
KASR 171305Z 35004KT 03/01 A3014 RMK A01 T00270005  RH  087%=      5-min Rain = 0
KASR 171310Z 36005KT 03/01 A3014 RMK A01 T00290009  RH  088%=      5-min Rain = 0
KASR 171315Z 34004KT 03/01 A3015 RMK A01 T00290011  RH  089%=      5-min Rain = 0
KASR 171320Z 35004KT 03/01 A3015 RMK A01 T00270010  RH  089%=      5-min Rain = 0
KASR 171325Z 35004KT 03/01 A3015 RMK A01 T00270010  RH  090%=      5-min Rain = 0
KASR 171330Z 36003KT 03/01 A3016 RMK A01 T00260010  RH  090%=      5-min Rain = 0
KASR 171335Z 35002KT 03/01 A3016 RMK A01 T00250010  RH  091%=      5-min Rain = 0
KASR 171340Z 00002KT 03/01 A3016 RMK A01 T00250011  RH  092%=      5-min Rain = 0
KASR 171345Z 01002KT 02/01 A3016 RMK A01 T00210008  RH  092%=      5-min Rain = 0
KASR 171350Z 05002KT 02/01 A3017 RMK A01 T00170006  RH  093%=      5-min Rain = 0
KASR 171355Z 03002KT 02/01 A3017 RMK A01 T00190009  RH  094%=      5-min Rain = 0
KASR 171400Z 35002KT 02/01 A3017 RMK A01 T00210011  RH  095%=      5-min Rain = 0
KASR 171405Z 33002KT 02/01 A3017 RMK A01 T00220012  RH  094%=      5-min Rain = 0
KASR 171410Z 35002KT 02/00 A3017 RMK A01 T00170003  RH  092%=      5-min Rain = 0
KASR 171415Z 34002KT 02/01 A3018 RMK A01 T00220008  RH  092%=      5-min Rain = 0
KASR 171420Z 33002KT 02/01 A3018 RMK A01 T00240007  RH  090%=      5-min Rain = 0
KASR 171425Z 32002KT 03/01 A3018 RMK A01 T00260007  RH  089%=      5-min Rain = 0
KASR 171430Z 31002KT 03/01 A3018 RMK A01 T00290012  RH  090%=      5-min Rain = 0
KASR 171435Z 30002KT 03/02 A3019 RMK A01 T00340016  RH  089%=      5-min Rain = 0
KASR 171440Z 30002KT 04/02 A3018 RMK A01 T00380018  RH  088%=      5-min Rain = 0
KASR 171445Z 33002KT 04/02 A3018 RMK A01 T00380020  RH  089%=      5-min Rain = 0
KASR 171450Z 35003KT 04/02 A3019 RMK A01 T00420024  RH  089%=      5-min Rain = 0
KASR 171455Z 35003KT 05/03 A3019 RMK A01 T00450025  RH  088%=      5-min Rain = 0
KASR 171500Z 35003KT 05/03 A3019 RMK A01 T00490029  RH  088%=      5-min Rain = 0
KASR 171505Z 35005KT 06/03 A3019 RMK A01 T00550033  RH  087%=      5-min Rain = 0
KASR 171510Z 36006KT 06/03 A3019 RMK A01 T00580034  RH  086%=      5-min Rain = 0
KASR 171515Z 00006KT 06/04 A3019 RMK A01 T00610036  RH  085%=      5-min Rain = 0
KASR 171520Z 36006KT 06/04 A3019 RMK A01 T00630037  RH  084%=      5-min Rain = 0
KASR 171525Z 35005KT 07/04 A3019 RMK A01 T00660038  RH  083%=      5-min Rain = 0
KASR 171530Z 36005KT 07/04 A3019 RMK A01 T00660037  RH  083%=      5-min Rain = 0
KASR 171535Z 02006KT 07/04 A3019 RMK A01 T00680037  RH  082%=      5-min Rain = 0
KASR 171540Z 01006KT 07/04 A302 RMK A01 T00720039  RH  081%=      5-min Rain = 0
KASR 171545Z 36005KT 07/04 A302 RMK A01 T00730039  RH  080%=      5-min Rain = 0
KASR 171550Z 35006KT 07/04 A302 RMK A01 T00740038  RH  079%=      5-min Rain = 0
KASR 171555Z 35004KT 08/04 A3021 RMK A01 T00760040  RH  079%=      5-min Rain = 0
KASR 171600Z 01003KT 08/04 A3021 RMK A01 T00800039  RH  076%=      5-min Rain = 0
KASR 171605Z 34004KT 08/04 A3021 RMK A01 T00820040  RH  076%=      5-min Rain = 0
KASR 171610Z 35004KT 08/04 A3021 RMK A01 T00840040  RH  075%=      5-min Rain = 0
KASR 171615Z 36004KT 09/04 A3021 RMK A01 T00860039  RH  074%=      5-min Rain = 0
KASR 171620Z 00003KT 09/04 A3021 RMK A01 T00880039  RH  073%=      5-min Rain = 0
KASR 171625Z 35003KT 09/04 A3022 RMK A01 T00900039  RH  071%=      5-min Rain = 0
KASR 171630Z 35003KT 09/04 A3022 RMK A01 T00940043  RH  071%=      5-min Rain = 0
KASR 171635Z 02003KT 10/04 A3022 RMK A01 T00970043  RH  070%=      5-min Rain = 0
KASR 171640Z 36003KT 10/04 A3022 RMK A01 T00980039  RH  068%=      5-min Rain = 0
KASR 171645Z 04002KT 10/04 A3022 RMK A01 T00990040  RH  068%=      5-min Rain = 0
KASR 171650Z 05001KT 10/04 A3022 RMK A01 T01020041  RH  067%=      5-min Rain = 0
KASR 171655Z 08003KT 11/04 A3022 RMK A01 T01070041  RH  064%=      5-min Rain = 0
KASR 171700Z 06001KT 11/04 A3022 RMK A01 T01080040  RH  063%=      5-min Rain = 0
KASR 171705Z 07002KT 11/04 A3023 RMK A01 T01110038  RH  062%=      5-min Rain = 0
KASR 171710Z 05003KT 11/04 A3023 RMK A01 T01130041  RH  062%=      5-min Rain = 0
KASR 171715Z 04002KT 11/04 A3023 RMK A01 T01100037  RH  061%=      5-min Rain = 0
KASR 171720Z 32001KT 11/04 A3023 RMK A01 T01130039  RH  061%=      5-min Rain = 0
KASR 171725Z 34001KT 12/04 A3022 RMK A01 T01160041  RH  061%=      5-min Rain = 0
KASR 171730Z 03003KT 12/04 A3022 RMK A01 T01200040  RH  059%=      5-min Rain = 0
KASR 171735Z 36002KT 12/04 A3022 RMK A01 T01190037  RH  058%=      5-min Rain = 0
KASR 171740Z 33001KT 12/04 A3022 RMK A01 T01200037  RH  057%=      5-min Rain = 0
KASR 171745Z 04003KT 12/04 A3021 RMK A01 T01230037  RH  056%=      5-min Rain = 0
KASR 171750Z 04003KT 12/04 A3021 RMK A01 T01210037  RH  057%=      5-min Rain = 0
KASR 171755Z 02005KT 12/03 A302 RMK A01 T01220033  RH  055%=      5-min Rain = 0
KASR 171800Z 02003KT 12/04 A302 RMK A01 T01230038  RH  057%=      5-min Rain = 0
KASR 171805Z 03004KT 13/04 A302 RMK A01 T01260038  RH  056%=      5-min Rain = 0
KASR 171810Z 03002KT 13/04 A3019 RMK A01 T01280038  RH  055%=      5-min Rain = 0
KASR 171815Z 03004KT 13/04 A3019 RMK A01 T01310039  RH  054%=      5-min Rain = 0
KASR 171820Z 02003KT 13/04 A3019 RMK A01 T01290037  RH  054%=      5-min Rain = 0
KASR 171825Z 05003KT 13/04 A3018 RMK A01 T01290038  RH  055%=      5-min Rain = 0
KASR 171830Z 01005KT 13/04 A3017 RMK A01 T01330039  RH  054%=      5-min Rain = 0
KASR 171835Z 02005KT 13/04 A3017 RMK A01 T01320037  RH  053%=      5-min Rain = 0
KASR 171840Z 02004KT 13/04 A3017 RMK A01 T01330036  RH  052%=      5-min Rain = 0
KASR 171845Z 05003KT 14/04 A3016 RMK A01 T01360040  RH  053%=      5-min Rain = 0
KASR 171850Z 02005KT 14/04 A3016 RMK A01 T01380040  RH  052%=      5-min Rain = 0
KASR 171855Z 02003KT 14/04 A3016 RMK A01 T01380040  RH  052%=      5-min Rain = 0
KASR 171900Z 36002KT 14/04 A3016 RMK A01 T01390040  RH  052%=      5-min Rain = 0
KASR 171905Z 02004KT 14/04 A3015 RMK A01 T01380038  RH  051%=      5-min Rain = 0
KASR 171910Z 00005KT 14/04 A3015 RMK A01 T01400041  RH  052%=      5-min Rain = 0
KASR 171915Z 05002KT 14/04 A3015 RMK A01 T01410040  RH  051%=      5-min Rain = 0
KASR 171920Z 34003KT 14/04 A3015 RMK A01 T01430043  RH  052%=      5-min Rain = 0
KASR 171925Z 01004KT 15/04 A3015 RMK A01 T01450044  RH  051%=      5-min Rain = 0
KASR 171930Z 05004KT 15/04 A3014 RMK A01 T01480040  RH  049%=      5-min Rain = 0
KASR 171935Z 07004KT 15/04 A3014 RMK A01 T01480039  RH  049%=      5-min Rain = 0
KASR 171940Z 05004KT 15/04 A3014 RMK A01 T01490041  RH  049%=      5-min Rain = 0
KASR 171945Z 12001KT 15/04 A3014 RMK A01 T01510041  RH  048%=      5-min Rain = 0
KASR 171950Z 10003KT 15/04 A3014 RMK A01 T01530043  RH  048%=      5-min Rain = 0
KASR 171955Z 05003KT 15/04 A3014 RMK A01 T01510041  RH  048%=      5-min Rain = 0
KASR 172000Z 01002KT 16/04 A3013 RMK A01 T01550044  RH  048%=      5-min Rain = 0
KASR 172005Z 33003KT 15/05 A3013 RMK A01 T01540045  RH  049%=      5-min Rain = 0
KASR 172010Z 04003KT 15/04 A3013 RMK A01 T01530043  RH  049%=      5-min Rain = 0
KASR 172015Z 06004KT 15/04 A3012 RMK A01 T01530044  RH  049%=      5-min Rain = 0
KASR 172020Z 06001KT 16/05 A3012 RMK A01 T01560047  RH  049%=      5-min Rain = 0
KASR 172025Z 01002KT 16/05 A3012 RMK A01 T01570048  RH  049%=      5-min Rain = 0
KASR 172030Z 03002KT 16/05 A3012 RMK A01 T01590050  RH  049%=      5-min Rain = 0
KASR 172035Z 05002KT 16/05 A3012 RMK A01 T01600047  RH  048%=      5-min Rain = 0
KASR 172040Z 36004KT 16/05 A3011 RMK A01 T01590050  RH  049%=      5-min Rain = 0
KASR 172045Z 00004KT 16/05 A3011 RMK A01 T01590052  RH  050%=      5-min Rain = 0
KASR 172050Z 06002KT 16/05 A3011 RMK A01 T01620051  RH  048%=      5-min Rain = 0
KASR 172055Z 09003KT 17/05 A3011 RMK A01 T01650053  RH  048%=      5-min Rain = 0
KASR 172100Z 11003G8KT 17/05 A3011 RMK A01 T01670052  RH  047%=      5-min Rain = 0
KASR 172105Z 08004KT 16/05 A3011 RMK A01 T01640054  RH  049%=      5-min Rain = 0
KASR 172110Z 14003KT 17/05 A3011 RMK A01 T01650053  RH  048%=      5-min Rain = 0
KASR 172115Z 17003KT 17/05 A3011 RMK A01 T01670054  RH  048%=      5-min Rain = 0
KASR 172120Z 15003KT 17/05 A3011 RMK A01 T01670052  RH  047%=      5-min Rain = 0
KASR 172125Z 15005KT 17/06 A3011 RMK A01 T01650056  RH  049%=      5-min Rain = 0
KASR 172130Z 15005KT 16/06 A3011 RMK A01 T01640056  RH  050%=      5-min Rain = 0
KASR 172135Z 14005KT 16/06 A3011 RMK A01 T01620055  RH  050%=      5-min Rain = 0
KASR 172140Z 13005KT 16/06 A3011 RMK A01 T01630056  RH  050%=      5-min Rain = 0
KASR 172145Z 12006KT 16/06 A3011 RMK A01 T01610055  RH  050%=      5-min Rain = 0
KASR 172150Z 13005KT 16/06 A3011 RMK A01 T01610055  RH  050%=      5-min Rain = 0
KASR 172155Z 12005KT 16/05 A3011 RMK A01 T01630054  RH  049%=      5-min Rain = 0
KASR 172200Z 12005KT 17/05 A3011 RMK A01 T01650053  RH  048%=      5-min Rain = 0
KASR 172205Z 13005KT 16/05 A3011 RMK A01 T01630051  RH  048%=      5-min Rain = 0
KASR 172210Z 13006KT 16/05 A3011 RMK A01 T01620050  RH  048%=      5-min Rain = 0
KASR 172215Z 13005KT 16/05 A3011 RMK A01 T01630050  RH  048%=      5-min Rain = 0
KASR 172220Z 13006KT 16/05 A3011 RMK A01 T01620048  RH  047%=      5-min Rain = 0
KASR 172225Z 14006KT 16/05 A3011 RMK A01 T01610048  RH  048%=      5-min Rain = 0
KASR 172230Z 14006KT 16/05 A3011 RMK A01 T01610048  RH  048%=      5-min Rain = 0
KASR 172235Z 14006KT 16/05 A3011 RMK A01 T01600048  RH  048%=      5-min Rain = 0
KASR 172240Z 14005KT 16/05 A3011 RMK A01 T01600048  RH  048%=      5-min Rain = 0
KASR 172245Z 15006KT 16/05 A3011 RMK A01 T01600046  RH  047%=      5-min Rain = 0
KASR 172250Z 14005KT 16/05 A3011 RMK A01 T01600049  RH  048%=      5-min Rain = 0
KASR 172255Z 15005KT 16/05 A3011 RMK A01 T01570051  RH  050%=      5-min Rain = 0
KASR 172300Z 14005KT 16/05 A3011 RMK A01 T01560052  RH  051%=      5-min Rain = 0
KASR 172305Z 14004KT 16/05 A301 RMK A01 T01570051  RH  050%=      5-min Rain = 0
KASR 172310Z 14005KT 16/05 A301 RMK A01 T01560051  RH  050%=      5-min Rain = 0
KASR 172315Z 14005KT 16/05 A301 RMK A01 T01560050  RH  050%=      5-min Rain = 0
KASR 172320Z 14004KT 16/05 A301 RMK A01 T01560052  RH  051%=      5-min Rain = 0
KASR 172325Z 13004KT 16/05 A301 RMK A01 T01550054  RH  051%=      5-min Rain = 0
KASR 172330Z 14005KT 15/06 A301 RMK A01 T01530055  RH  053%=      5-min Rain = 0
KASR 172335Z 13005KT 15/06 A301 RMK A01 T01490057  RH  055%=      5-min Rain = 0
KASR 172340Z 13005KT 14/06 A301 RMK A01 T01440058  RH  057%=      5-min Rain = 0
KASR 172345Z 13006KT 14/06 A301 RMK A01 T01400057  RH  058%=      5-min Rain = 0
KASR 172350Z 13005KT 14/06 A301 RMK A01 T01360055  RH  059%=      5-min Rain = 0
KASR 172355Z 13006KT 13/06 A301 RMK A01 T01310056  RH  061%=      5-min Rain = 0
KASR 180000Z 13006KT 13/06 A301 RMK A01 T01260055  RH  063%=      5-min Rain = 0
KASR 180005Z 12005KT 12/06 A301 RMK A01 T01220056  RH  065%=      5-min Rain = 0
KASR 180010Z 12005KT 12/06 A3009 RMK A01 T01190055  RH  066%=      5-min Rain = 0
KASR 180015Z 12005KT 12/06 A3009 RMK A01 T01170055  RH  066%=      5-min Rain = 0
KASR 180020Z 12005KT 12/05 A3009 RMK A01 T01150054  RH  067%=      5-min Rain = 0
KASR 180025Z 11005KT 11/05 A301 RMK A01 T01110053  RH  068%=      5-min Rain = 0
KASR 180030Z 11005KT 11/05 A301 RMK A01 T01080053  RH  070%=      5-min Rain = 0
KASR 180035Z 11006KT 11/05 A3009 RMK A01 T01060053  RH  070%=      5-min Rain = 0
KASR 180040Z 11006KT 11/05 A3009 RMK A01 T01050054  RH  072%=      5-min Rain = 0
KASR 180045Z 11006KT 10/06 A3009 RMK A01 T01040055  RH  073%=      5-min Rain = 0
KASR 180050Z 11006KT 10/06 A3009 RMK A01 T01040056  RH  073%=      5-min Rain = 0
KASR 180055Z 12006KT 10/06 A3009 RMK A01 T01040056  RH  073%=      5-min Rain = 0
KASR 180100Z 12006KT 10/06 A3009 RMK A01 T01040056  RH  073%=      5-min Rain = 0
KASR 180105Z 12006KT 10/06 A3009 RMK A01 T01030057  RH  074%=      5-min Rain = 0
KASR 180110Z 12006KT 10/06 A3009 RMK A01 T01020057  RH  075%=      5-min Rain = 0
KASR 180115Z 12006KT 10/06 A3009 RMK A01 T01020057  RH  075%=      5-min Rain = 0
KASR 180120Z 12006KT 10/06 A3009 RMK A01 T01010057  RH  075%=      5-min Rain = 0
KASR 180125Z 12006KT 10/06 A3009 RMK A01 T01000058  RH  076%=      5-min Rain = 0
KASR 180130Z 12006KT 10/06 A3009 RMK A01 T00980058  RH  077%=      5-min Rain = 0
KASR 180135Z 12007KT 10/06 A3008 RMK A01 T00980059  RH  078%=      5-min Rain = 0
KASR 180140Z 12007KT 10/06 A3008 RMK A01 T00980060  RH  078%=      5-min Rain = 0
KASR 180145Z 12006KT 10/06 A3008 RMK A01 T00990060  RH  078%=      5-min Rain = 0
KASR 180150Z 12006KT 10/06 A3008 RMK A01 T00980060  RH  078%=      5-min Rain = 0
KASR 180155Z 13007KT 10/06 A3008 RMK A01 T00960059  RH  079%=      5-min Rain = 0
KASR 180200Z 13007KT 10/06 A3008 RMK A01 T00950059  RH  079%=      5-min Rain = 0
KASR 180205Z 13007KT 09/06 A3008 RMK A01 T00940058  RH  080%=      5-min Rain = 0
KASR 180210Z 13007KT 09/06 A3007 RMK A01 T00930058  RH  080%=      5-min Rain = 0
KASR 180215Z 13006KT 09/06 A3007 RMK A01 T00910057  RH  081%=      5-min Rain = 0
KASR 180220Z 13006KT 09/06 A3007 RMK A01 T00900057  RH  081%=      5-min Rain = 0
KASR 180225Z 13007KT 09/06 A3007 RMK A01 T00900057  RH  081%=      5-min Rain = 0
KASR 180230Z 13006KT 09/06 A3008 RMK A01 T00910057  RH  081%=      5-min Rain = 0
KASR 180235Z 13005KT 09/06 A3008 RMK A01 T00890056  RH  081%=      5-min Rain = 0
KASR 180240Z 13005KT 09/06 A3007 RMK A01 T00860055  RH  082%=      5-min Rain = 0
KASR 180245Z 13005KT 08/05 A3007 RMK A01 T00840054  RH  083%=      5-min Rain = 0
KASR 180250Z 13005KT 08/05 A3007 RMK A01 T00830054  RH  083%=      5-min Rain = 0
KASR 180255Z 13006KT 09/06 A3007 RMK A01 T00850055  RH  083%=      5-min Rain = 0
KASR 180300Z 13006KT 09/06 A3007 RMK A01 T00860055  RH  082%=      5-min Rain = 0
KASR 180305Z 13005KT 09/06 A3007 RMK A01 T00880055  RH  081%=      5-min Rain = 0
KASR 180310Z 13004KT 09/06 A3007 RMK A01 T00890055  RH  081%=      5-min Rain = 0
KASR 180315Z 10002KT 09/05 A3007 RMK A01 T00870054  RH  081%=      5-min Rain = 0
KASR 180320Z 35002KT 08/04 A3007 RMK A01 T00750044  RH  082%=      5-min Rain = 0
KASR 180325Z 33002KT 07/04 A3007 RMK A01 T00650042  RH  086%=      5-min Rain = 0
KASR 180330Z 31001KT 06/04 A3007 RMK A01 T00640043  RH  088%=      5-min Rain = 0
KASR 180335Z 21000KT 07/05 A3006 RMK A01 T00650046  RH  089%=      5-min Rain = 0
KASR 180340Z 18001KT 07/05 A3006 RMK A01 T00660045  RH  088%=      5-min Rain = 0
KASR 180345Z 18002KT 06/04 A3006 RMK A01 T00640042  RH  087%=      5-min Rain = 0
KASR 180350Z 18002KT 06/04 A3006 RMK A01 T00610041  RH  088%=      5-min Rain = 0
KASR 180355Z 16001KT 06/04 A3006 RMK A01 T00580041  RH  090%=      5-min Rain = 0
KASR 180400Z 15001KT 06/04 A3005 RMK A01 T00560041  RH  091%=      5-min Rain = 0
KASR 180405Z 13002KT 06/04 A3005 RMK A01 T00560042  RH  092%=      5-min Rain = 0
KASR 180410Z 13003KT 05/04 A3005 RMK A01 T00540040  RH  092%=      5-min Rain = 0
KASR 180415Z 14006KT 05/04 A3005 RMK A01 T00540042  RH  093%=      5-min Rain = 0
KASR 180420Z 14007KT 06/05 A3005 RMK A01 T00630049  RH  092%=      5-min Rain = 0
KASR 180425Z 14008KT 07/05 A3005 RMK A01 T00720052  RH  088%=      5-min Rain = 0
KASR 180430Z 14008KT 08/05 A3005 RMK A01 T00780053  RH  086%=      5-min Rain = 0
KASR 180435Z 14008KT 08/05 A3005 RMK A01 T00810053  RH  084%=      5-min Rain = 0
KASR 180440Z 15008KT 08/05 A3005 RMK A01 T00790053  RH  084%=      5-min Rain = 0
KASR 180445Z 15008KT 08/05 A3005 RMK A01 T00780052  RH  085%=      5-min Rain = 0
KASR 180450Z 15008KT 08/05 A3004 RMK A01 T00790052  RH  084%=      5-min Rain = 0
KASR 180455Z 14007KT 08/05 A3004 RMK A01 T00820052  RH  083%=      5-min Rain = 0
KASR 180500Z 14007KT 08/05 A3004 RMK A01 T00820052  RH  082%=      5-min Rain = 0
KASR 180505Z 15008KT 08/05 A3004 RMK A01 T00820052  RH  082%=      5-min Rain = 0
KASR 180510Z 15008KT 08/05 A3004 RMK A01 T00830052  RH  082%=      5-min Rain = 0
KASR 180515Z 15008KT 08/05 A3004 RMK A01 T00820052  RH  082%=      5-min Rain = 0
KASR 180520Z 15009KT 08/05 A3003 RMK A01 T00820052  RH  082%=      5-min Rain = 0
KASR 180525Z 16008KT 08/05 A3004 RMK A01 T00800051  RH  083%=      5-min Rain = 0
KASR 180530Z 16007KT 08/05 A3004 RMK A01 T00770050  RH  084%=      5-min Rain = 0
KASR 180535Z 16007KT 08/05 A3003 RMK A01 T00750049  RH  085%=      5-min Rain = 0
KASR 180540Z 17007KT 07/05 A3003 RMK A01 T00730048  RH  086%=      5-min Rain = 0
KASR 180545Z 17008KT 07/05 A3003 RMK A01 T00720048  RH  086%=      5-min Rain = 0
KASR 180550Z 17008KT 07/05 A3003 RMK A01 T00710048  RH  087%=      5-min Rain = 0
KASR 180555Z 16008KT 07/05 A3003 RMK A01 T00690047  RH  087%=      5-min Rain = 0

Page generated in 0.0085 seconds.